sensor_id;sensor_type;location;lat;lon;timestamp;P1;durP1;ratioP1;P2;durP2;ratioP2
37877;SDS011;23715;53.652;8.516;2022-08-14T00:03:27;12.70;;;11.47;;
37877;SDS011;23715;53.652;8.516;2022-08-14T00:08:29;12.00;;;10.95;;
37877;SDS011;23715;53.652;8.516;2022-08-14T00:13:30;12.53;;;11.25;;
37877;SDS011;23715;53.652;8.516;2022-08-14T00:18:30;12.70;;;11.40;;
37877;SDS011;23715;53.652;8.516;2022-08-14T00:23:31;12.82;;;11.53;;
37877;SDS011;23715;53.652;8.516;2022-08-14T00:28:31;12.95;;;11.65;;
37877;SDS011;23715;53.652;8.516;2022-08-14T00:33:32;12.23;;;11.20;;
37877;SDS011;23715;53.652;8.516;2022-08-14T00:38:33;13.05;;;11.78;;
37877;SDS011;23715;53.652;8.516;2022-08-14T00:43:34;12.70;;;11.75;;
37877;SDS011;23715;53.652;8.516;2022-08-14T00:48:35;12.60;;;11.60;;
37877;SDS011;23715;53.652;8.516;2022-08-14T00:53:38;12.40;;;11.30;;
37877;SDS011;23715;53.652;8.516;2022-08-14T00:58:39;12.63;;;11.55;;
37877;SDS011;23715;53.652;8.516;2022-08-14T01:08:39;12.70;;;11.53;;
37877;SDS011;23715;53.652;8.516;2022-08-14T01:13:42;15.98;;;11.50;;
37877;SDS011;23715;53.652;8.516;2022-08-14T01:18:43;12.60;;;11.20;;
37877;SDS011;23715;53.652;8.516;2022-08-14T01:24:02;12.37;;;11.57;;
37877;SDS011;23715;53.652;8.516;2022-08-14T01:29:06;12.07;;;11.15;;
37877;SDS011;23715;53.652;8.516;2022-08-14T01:34:08;12.18;;;11.33;;
37877;SDS011;23715;53.652;8.516;2022-08-14T01:39:15;12.68;;;11.55;;
37877;SDS011;23715;53.652;8.516;2022-08-14T01:44:12;11.53;;;10.72;;
37877;SDS011;23715;53.652;8.516;2022-08-14T01:49:13;12.33;;;11.15;;
37877;SDS011;23715;53.652;8.516;2022-08-14T01:54:15;12.53;;;11.33;;
37877;SDS011;23715;53.652;8.516;2022-08-14T01:59:22;12.05;;;11.00;;
37877;SDS011;23715;53.652;8.516;2022-08-14T02:04:27;11.10;;;10.20;;
37877;SDS011;23715;53.652;8.516;2022-08-14T02:09:29;11.18;;;10.18;;
37877;SDS011;23715;53.652;8.516;2022-08-14T02:14:31;12.40;;;11.38;;
37877;SDS011;23715;53.652;8.516;2022-08-14T02:19:32;10.70;;;9.80;;
37877;SDS011;23715;53.652;8.516;2022-08-14T02:24:34;12.10;;;10.83;;
37877;SDS011;23715;53.652;8.516;2022-08-14T02:29:40;11.78;;;10.32;;
37877;SDS011;23715;53.652;8.516;2022-08-14T02:34:38;11.70;;;10.68;;
37877;SDS011;23715;53.652;8.516;2022-08-14T02:39:41;10.18;;;9.25;;
37877;SDS011;23715;53.652;8.516;2022-08-14T02:44:43;10.53;;;9.48;;
37877;SDS011;23715;53.652;8.516;2022-08-14T02:49:44;9.73;;;9.03;;
37877;SDS011;23715;53.652;8.516;2022-08-14T02:54:44;10.48;;;9.50;;
37877;SDS011;23715;53.652;8.516;2022-08-14T02:59:45;10.68;;;9.68;;
37877;SDS011;23715;53.652;8.516;2022-08-14T03:04:47;11.55;;;10.55;;
37877;SDS011;23715;53.652;8.516;2022-08-14T03:09:47;12.30;;;9.83;;
37877;SDS011;23715;53.652;8.516;2022-08-14T03:14:48;12.28;;;10.75;;
37877;SDS011;23715;53.652;8.516;2022-08-14T03:19:49;11.97;;;10.78;;
37877;SDS011;23715;53.652;8.516;2022-08-14T03:24:50;10.60;;;9.60;;
37877;SDS011;23715;53.652;8.516;2022-08-14T03:29:51;10.05;;;9.35;;
37877;SDS011;23715;53.652;8.516;2022-08-14T03:34:54;12.35;;;10.00;;
37877;SDS011;23715;53.652;8.516;2022-08-14T03:39:56;10.18;;;9.18;;
37877;SDS011;23715;53.652;8.516;2022-08-14T03:44:56;9.93;;;9.23;;
37877;SDS011;23715;53.652;8.516;2022-08-14T03:49:58;10.68;;;9.88;;
37877;SDS011;23715;53.652;8.516;2022-08-14T03:54:58;10.23;;;9.43;;
37877;SDS011;23715;53.652;8.516;2022-08-14T04:00:02;10.93;;;9.90;;
37877;SDS011;23715;53.652;8.516;2022-08-14T04:05:09;10.65;;;9.85;;
37877;SDS011;23715;53.652;8.516;2022-08-14T04:10:10;10.78;;;9.40;;
37877;SDS011;23715;53.652;8.516;2022-08-14T04:15:11;10.13;;;9.10;;
37877;SDS011;23715;53.652;8.516;2022-08-14T04:20:12;11.18;;;9.35;;
37877;SDS011;23715;53.652;8.516;2022-08-14T04:25:16;11.53;;;10.30;;
37877;SDS011;23715;53.652;8.516;2022-08-14T04:30:17;10.88;;;9.88;;
37877;SDS011;23715;53.652;8.516;2022-08-14T04:35:17;10.08;;;9.10;;
37877;SDS011;23715;53.652;8.516;2022-08-14T04:45:35;12.80;;;9.25;;
37877;SDS011;23715;53.652;8.516;2022-08-14T04:50:41;11.83;;;9.45;;
37877;SDS011;23715;53.652;8.516;2022-08-14T04:55:46;12.15;;;8.80;;
37877;SDS011;23715;53.652;8.516;2022-08-14T05:00:48;9.75;;;8.93;;
37877;SDS011;23715;53.652;8.516;2022-08-14T05:05:50;10.80;;;9.70;;
37877;SDS011;23715;53.652;8.516;2022-08-14T05:10:54;10.30;;;9.48;;
37877;SDS011;23715;53.652;8.516;2022-08-14T05:15:55;10.23;;;9.48;;
37877;SDS011;23715;53.652;8.516;2022-08-14T05:20:58;9.95;;;9.25;;
37877;SDS011;23715;53.652;8.516;2022-08-14T05:26:00;10.55;;;9.65;;
37877;SDS011;23715;53.652;8.516;2022-08-14T05:31:05;11.03;;;10.13;;
37877;SDS011;23715;53.652;8.516;2022-08-14T05:36:06;9.70;;;9.10;;
37877;SDS011;23715;53.652;8.516;2022-08-14T05:41:13;10.38;;;9.35;;
37877;SDS011;23715;53.652;8.516;2022-08-14T05:46:16;10.68;;;9.73;;
37877;SDS011;23715;53.652;8.516;2022-08-14T05:51:19;10.35;;;9.50;;
37877;SDS011;23715;53.652;8.516;2022-08-14T05:56:22;10.30;;;9.38;;
37877;SDS011;23715;53.652;8.516;2022-08-14T06:01:25;10.95;;;9.45;;
37877;SDS011;23715;53.652;8.516;2022-08-14T06:06:25;13.28;;;9.90;;
37877;SDS011;23715;53.652;8.516;2022-08-14T06:16:25;9.68;;;8.88;;
37877;SDS011;23715;53.652;8.516;2022-08-14T06:21:26;9.55;;;8.63;;
37877;SDS011;23715;53.652;8.516;2022-08-14T06:26:26;11.22;;;9.60;;
37877;SDS011;23715;53.652;8.516;2022-08-14T06:31:27;9.68;;;8.93;;
37877;SDS011;23715;53.652;8.516;2022-08-14T06:36:27;11.50;;;9.80;;
37877;SDS011;23715;53.652;8.516;2022-08-14T06:46:28;9.53;;;8.77;;
37877;SDS011;23715;53.652;8.516;2022-08-14T06:51:29;9.15;;;8.45;;
37877;SDS011;23715;53.652;8.516;2022-08-14T06:56:29;10.18;;;9.33;;
37877;SDS011;23715;53.652;8.516;2022-08-14T07:01:29;10.55;;;9.63;;
37877;SDS011;23715;53.652;8.516;2022-08-14T07:06:48;9.40;;;8.40;;
37877;SDS011;23715;53.652;8.516;2022-08-14T07:11:50;10.15;;;8.78;;
37877;SDS011;23715;53.652;8.516;2022-08-14T07:16:51;10.35;;;9.35;;
37877;SDS011;23715;53.652;8.516;2022-08-14T07:21:51;9.85;;;9.05;;
37877;SDS011;23715;53.652;8.516;2022-08-14T07:26:51;10.25;;;9.48;;
37877;SDS011;23715;53.652;8.516;2022-08-14T07:31:52;11.33;;;10.25;;
37877;SDS011;23715;53.652;8.516;2022-08-14T07:36:53;11.53;;;10.40;;
37877;SDS011;23715;53.652;8.516;2022-08-14T07:41:54;11.97;;;10.93;;
37877;SDS011;23715;53.652;8.516;2022-08-14T07:46:54;12.50;;;11.63;;
37877;SDS011;23715;53.652;8.516;2022-08-14T07:51:55;10.80;;;10.00;;
37877;SDS011;23715;53.652;8.516;2022-08-14T07:56:57;12.18;;;10.90;;
37877;SDS011;23715;53.652;8.516;2022-08-14T08:01:58;12.45;;;11.43;;
37877;SDS011;23715;53.652;8.516;2022-08-14T08:06:59;10.95;;;9.95;;
37877;SDS011;23715;53.652;8.516;2022-08-14T08:12:00;11.38;;;10.48;;
37877;SDS011;23715;53.652;8.516;2022-08-14T08:17:03;12.63;;;11.43;;
37877;SDS011;23715;53.652;8.516;2022-08-14T08:22:03;11.57;;;10.78;;
37877;SDS011;23715;53.652;8.516;2022-08-14T08:27:17;11.63;;;10.72;;
37877;SDS011;23715;53.652;8.516;2022-08-14T08:32:18;11.70;;;10.75;;
37877;SDS011;23715;53.652;8.516;2022-08-14T08:42:24;13.55;;;12.33;;
37877;SDS011;23715;53.652;8.516;2022-08-14T08:47:25;11.28;;;10.15;;
37877;SDS011;23715;53.652;8.516;2022-08-14T08:52:27;13.05;;;11.90;;
37877;SDS011;23715;53.652;8.516;2022-08-14T08:57:32;11.60;;;10.70;;
37877;SDS011;23715;53.652;8.516;2022-08-14T09:02:34;11.80;;;10.88;;
37877;SDS011;23715;53.652;8.516;2022-08-14T09:07:34;11.45;;;10.32;;
37877;SDS011;23715;53.652;8.516;2022-08-14T09:12:34;11.97;;;11.10;;
37877;SDS011;23715;53.652;8.516;2022-08-14T09:17:36;11.68;;;10.85;;
37877;SDS011;23715;53.652;8.516;2022-08-14T09:22:43;12.30;;;11.40;;
37877;SDS011;23715;53.652;8.516;2022-08-14T09:27:39;12.20;;;11.07;;
37877;SDS011;23715;53.652;8.516;2022-08-14T09:38:10;12.18;;;11.18;;
37877;SDS011;23715;53.652;8.516;2022-08-14T09:43:32;13.00;;;11.28;;
37877;SDS011;23715;53.652;8.516;2022-08-14T09:48:43;12.73;;;11.73;;
37877;SDS011;23715;53.652;8.516;2022-08-14T09:53:58;14.83;;;13.60;;
37877;SDS011;23715;53.652;8.516;2022-08-14T09:59:08;14.05;;;12.85;;
37877;SDS011;23715;53.652;8.516;2022-08-14T10:04:05;13.80;;;12.93;;
37877;SDS011;23715;53.652;8.516;2022-08-14T10:09:07;14.23;;;13.22;;
37877;SDS011;23715;53.652;8.516;2022-08-14T10:14:16;13.43;;;12.13;;
37877;SDS011;23715;53.652;8.516;2022-08-14T10:19:23;14.75;;;13.55;;
37877;SDS011;23715;53.652;8.516;2022-08-14T10:24:27;15.30;;;14.00;;
37877;SDS011;23715;53.652;8.516;2022-08-14T10:29:31;15.93;;;14.45;;
37877;SDS011;23715;53.652;8.516;2022-08-14T10:34:33;15.28;;;13.88;;
37877;SDS011;23715;53.652;8.516;2022-08-14T10:39:35;15.50;;;14.30;;
37877;SDS011;23715;53.652;8.516;2022-08-14T10:44:38;14.45;;;13.10;;
37877;SDS011;23715;53.652;8.516;2022-08-14T10:49:56;13.10;;;12.03;;
37877;SDS011;23715;53.652;8.516;2022-08-14T10:55:10;14.00;;;12.60;;
37877;SDS011;23715;53.652;8.516;2022-08-14T11:00:12;13.28;;;12.07;;
37877;SDS011;23715;53.652;8.516;2022-08-14T11:05:16;13.70;;;12.70;;
37877;SDS011;23715;53.652;8.516;2022-08-14T11:10:17;13.83;;;12.53;;
37877;SDS011;23715;53.652;8.516;2022-08-14T11:15:18;15.40;;;13.30;;
37877;SDS011;23715;53.652;8.516;2022-08-14T11:20:26;14.87;;;13.55;;
37877;SDS011;23715;53.652;8.516;2022-08-14T11:25:30;14.58;;;13.40;;
37877;SDS011;23715;53.652;8.516;2022-08-14T11:30:30;15.30;;;14.13;;
37877;SDS011;23715;53.652;8.516;2022-08-14T11:35:32;14.75;;;13.60;;
37877;SDS011;23715;53.652;8.516;2022-08-14T11:40:35;16.10;;;14.45;;
37877;SDS011;23715;53.652;8.516;2022-08-14T11:45:39;16.32;;;15.32;;
37877;SDS011;23715;53.652;8.516;2022-08-14T11:50:45;16.60;;;15.30;;
37877;SDS011;23715;53.652;8.516;2022-08-14T11:55:53;16.95;;;15.55;;
37877;SDS011;23715;53.652;8.516;2022-08-14T12:00:55;17.42;;;15.78;;
37877;SDS011;23715;53.652;8.516;2022-08-14T12:06:07;17.20;;;15.83;;
37877;SDS011;23715;53.652;8.516;2022-08-14T12:11:10;15.38;;;13.98;;
37877;SDS011;23715;53.652;8.516;2022-08-14T12:16:15;17.67;;;15.95;;
37877;SDS011;23715;53.652;8.516;2022-08-14T12:21:18;16.53;;;15.20;;
37877;SDS011;23715;53.652;8.516;2022-08-14T12:26:21;17.73;;;16.37;;
37877;SDS011;23715;53.652;8.516;2022-08-14T12:31:21;17.48;;;16.17;;
37877;SDS011;23715;53.652;8.516;2022-08-14T12:36:22;16.95;;;15.65;;
37877;SDS011;23715;53.652;8.516;2022-08-14T12:41:28;16.05;;;14.93;;
37877;SDS011;23715;53.652;8.516;2022-08-14T12:46:35;16.30;;;15.10;;
37877;SDS011;23715;53.652;8.516;2022-08-14T12:51:39;15.20;;;13.90;;
37877;SDS011;23715;53.652;8.516;2022-08-14T12:56:39;17.05;;;15.40;;
37877;SDS011;23715;53.652;8.516;2022-08-14T13:01:44;19.17;;;17.17;;
37877;SDS011;23715;53.652;8.516;2022-08-14T13:06:45;16.05;;;14.75;;
37877;SDS011;23715;53.652;8.516;2022-08-14T13:11:50;16.93;;;15.53;;
37877;SDS011;23715;53.652;8.516;2022-08-14T13:16:52;16.82;;;15.23;;
37877;SDS011;23715;53.652;8.516;2022-08-14T13:21:55;16.50;;;15.30;;
37877;SDS011;23715;53.652;8.516;2022-08-14T13:26:58;17.48;;;15.78;;
37877;SDS011;23715;53.652;8.516;2022-08-14T13:32:00;17.35;;;16.05;;
37877;SDS011;23715;53.652;8.516;2022-08-14T13:37:06;15.85;;;14.68;;
37877;SDS011;23715;53.652;8.516;2022-08-14T13:42:09;15.32;;;14.13;;
37877;SDS011;23715;53.652;8.516;2022-08-14T13:47:11;16.77;;;15.38;;
37877;SDS011;23715;53.652;8.516;2022-08-14T13:52:12;15.60;;;14.45;;
37877;SDS011;23715;53.652;8.516;2022-08-14T13:57:17;17.20;;;15.90;;
37877;SDS011;23715;53.652;8.516;2022-08-14T14:02:19;15.32;;;13.88;;
37877;SDS011;23715;53.652;8.516;2022-08-14T14:07:20;15.45;;;13.95;;
37877;SDS011;23715;53.652;8.516;2022-08-14T14:12:22;16.12;;;14.73;;
37877;SDS011;23715;53.652;8.516;2022-08-14T14:17:25;14.33;;;13.22;;
37877;SDS011;23715;53.652;8.516;2022-08-14T14:22:26;15.10;;;13.90;;
37877;SDS011;23715;53.652;8.516;2022-08-14T14:27:28;17.20;;;15.67;;
37877;SDS011;23715;53.652;8.516;2022-08-14T14:32:31;16.23;;;14.93;;
37877;SDS011;23715;53.652;8.516;2022-08-14T14:37:32;18.12;;;15.30;;
37877;SDS011;23715;53.652;8.516;2022-08-14T14:42:36;16.97;;;15.43;;
37877;SDS011;23715;53.652;8.516;2022-08-14T14:47:52;17.10;;;15.13;;
37877;SDS011;23715;53.652;8.516;2022-08-14T14:52:53;14.25;;;12.95;;
37877;SDS011;23715;53.652;8.516;2022-08-14T14:57:53;16.40;;;15.00;;
37877;SDS011;23715;53.652;8.516;2022-08-14T15:02:53;15.90;;;14.47;;
37877;SDS011;23715;53.652;8.516;2022-08-14T15:07:55;15.70;;;14.28;;
37877;SDS011;23715;53.652;8.516;2022-08-14T15:12:55;16.12;;;14.80;;
37877;SDS011;23715;53.652;8.516;2022-08-14T15:17:57;14.45;;;13.38;;
37877;SDS011;23715;53.652;8.516;2022-08-14T15:23:00;16.70;;;14.78;;
37877;SDS011;23715;53.652;8.516;2022-08-14T15:28:03;14.80;;;13.70;;
37877;SDS011;23715;53.652;8.516;2022-08-14T15:33:05;15.95;;;14.47;;
37877;SDS011;23715;53.652;8.516;2022-08-14T15:38:06;15.37;;;14.17;;
37877;SDS011;23715;53.652;8.516;2022-08-14T15:43:07;15.30;;;13.93;;
37877;SDS011;23715;53.652;8.516;2022-08-14T15:48:09;14.98;;;13.70;;
37877;SDS011;23715;53.652;8.516;2022-08-14T15:53:10;15.75;;;14.45;;
37877;SDS011;23715;53.652;8.516;2022-08-14T15:58:11;15.23;;;14.13;;
37877;SDS011;23715;53.652;8.516;2022-08-14T16:03:11;16.00;;;14.35;;
37877;SDS011;23715;53.652;8.516;2022-08-14T16:08:13;15.10;;;13.75;;
37877;SDS011;23715;53.652;8.516;2022-08-14T16:13:14;14.63;;;13.30;;
37877;SDS011;23715;53.652;8.516;2022-08-14T16:18:15;14.68;;;13.50;;
37877;SDS011;23715;53.652;8.516;2022-08-14T16:23:17;17.55;;;15.93;;
37877;SDS011;23715;53.652;8.516;2022-08-14T16:28:18;14.95;;;13.85;;
37877;SDS011;23715;53.652;8.516;2022-08-14T16:33:19;15.33;;;13.83;;
37877;SDS011;23715;53.652;8.516;2022-08-14T16:38:20;17.12;;;15.83;;
37877;SDS011;23715;53.652;8.516;2022-08-14T16:43:22;15.48;;;14.07;;
37877;SDS011;23715;53.652;8.516;2022-08-14T16:48:24;16.87;;;14.43;;
37877;SDS011;23715;53.652;8.516;2022-08-14T16:53:27;16.87;;;15.43;;
37877;SDS011;23715;53.652;8.516;2022-08-14T16:58:27;17.33;;;15.73;;
37877;SDS011;23715;53.652;8.516;2022-08-14T17:03:28;16.90;;;15.30;;
37877;SDS011;23715;53.652;8.516;2022-08-14T17:08:28;17.30;;;15.60;;
37877;SDS011;23715;53.652;8.516;2022-08-14T17:13:32;16.00;;;14.60;;
37877;SDS011;23715;53.652;8.516;2022-08-14T17:18:41;16.52;;;14.98;;
37877;SDS011;23715;53.652;8.516;2022-08-14T17:23:48;14.87;;;13.80;;
37877;SDS011;23715;53.652;8.516;2022-08-14T17:29:08;16.52;;;15.03;;
37877;SDS011;23715;53.652;8.516;2022-08-14T17:34:17;15.72;;;14.30;;
37877;SDS011;23715;53.652;8.516;2022-08-14T17:39:20;16.67;;;13.88;;
37877;SDS011;23715;53.652;8.516;2022-08-14T17:44:32;15.60;;;14.03;;
37877;SDS011;23715;53.652;8.516;2022-08-14T17:49:43;16.73;;;15.30;;
37877;SDS011;23715;53.652;8.516;2022-08-14T17:54:44;16.48;;;14.93;;
37877;SDS011;23715;53.652;8.516;2022-08-14T17:59:46;14.55;;;13.53;;
37877;SDS011;23715;53.652;8.516;2022-08-14T18:04:48;15.57;;;14.10;;
37877;SDS011;23715;53.652;8.516;2022-08-14T18:09:52;15.85;;;14.43;;
37877;SDS011;23715;53.652;8.516;2022-08-14T18:14:57;16.07;;;14.68;;
37877;SDS011;23715;53.652;8.516;2022-08-14T18:20:06;14.40;;;13.20;;
37877;SDS011;23715;53.652;8.516;2022-08-14T18:25:07;13.85;;;12.53;;
37877;SDS011;23715;53.652;8.516;2022-08-14T18:30:09;13.72;;;12.35;;
37877;SDS011;23715;53.652;8.516;2022-08-14T18:35:12;13.83;;;12.73;;
37877;SDS011;23715;53.652;8.516;2022-08-14T18:45:23;14.53;;;12.93;;
37877;SDS011;23715;53.652;8.516;2022-08-14T18:50:27;12.80;;;11.80;;
37877;SDS011;23715;53.652;8.516;2022-08-14T19:10:52;13.83;;;10.72;;
37877;SDS011;23715;53.652;8.516;2022-08-14T19:15:51;11.53;;;10.45;;
37877;SDS011;23715;53.652;8.516;2022-08-14T19:20:53;11.45;;;10.53;;
37877;SDS011;23715;53.652;8.516;2022-08-14T19:26:04;13.43;;;12.28;;
37877;SDS011;23715;53.652;8.516;2022-08-14T19:31:36;13.43;;;12.10;;
37877;SDS011;23715;53.652;8.516;2022-08-14T19:36:23;13.50;;;12.23;;
37877;SDS011;23715;53.652;8.516;2022-08-14T19:41:25;12.73;;;11.63;;
37877;SDS011;23715;53.652;8.516;2022-08-14T19:46:30;12.30;;;11.20;;
37877;SDS011;23715;53.652;8.516;2022-08-14T19:51:38;11.50;;;10.65;;
37877;SDS011;23715;53.652;8.516;2022-08-14T19:56:43;12.35;;;10.98;;
37877;SDS011;23715;53.652;8.516;2022-08-14T20:01:45;11.40;;;10.45;;
37877;SDS011;23715;53.652;8.516;2022-08-14T20:06:47;13.95;;;11.53;;
37877;SDS011;23715;53.652;8.516;2022-08-14T20:11:48;10.90;;;10.00;;
37877;SDS011;23715;53.652;8.516;2022-08-14T20:16:50;12.30;;;10.98;;
37877;SDS011;23715;53.652;8.516;2022-08-14T20:21:54;12.10;;;10.80;;
37877;SDS011;23715;53.652;8.516;2022-08-14T20:27:15;11.63;;;10.65;;
37877;SDS011;23715;53.652;8.516;2022-08-14T20:32:22;12.75;;;11.57;;
37877;SDS011;23715;53.652;8.516;2022-08-14T20:37:26;11.50;;;10.45;;
37877;SDS011;23715;53.652;8.516;2022-08-14T20:42:28;17.62;;;10.80;;
37877;SDS011;23715;53.652;8.516;2022-08-14T20:47:56;17.12;;;12.75;;
37877;SDS011;23715;53.652;8.516;2022-08-14T20:52:58;11.45;;;10.10;;
37877;SDS011;23715;53.652;8.516;2022-08-14T20:58:00;10.80;;;9.93;;
37877;SDS011;23715;53.652;8.516;2022-08-14T21:08:41;13.13;;;11.65;;
37877;SDS011;23715;53.652;8.516;2022-08-14T21:13:43;19.77;;;10.93;;
37877;SDS011;23715;53.652;8.516;2022-08-14T21:18:44;13.10;;;12.00;;
37877;SDS011;23715;53.652;8.516;2022-08-14T21:23:52;11.40;;;10.43;;
37877;SDS011;23715;53.652;8.516;2022-08-14T21:28:49;13.37;;;10.67;;
37877;SDS011;23715;53.652;8.516;2022-08-14T21:33:50;10.60;;;9.60;;
37877;SDS011;23715;53.652;8.516;2022-08-14T21:38:50;11.15;;;10.15;;
37877;SDS011;23715;53.652;8.516;2022-08-14T21:43:52;16.40;;;9.28;;
37877;SDS011;23715;53.652;8.516;2022-08-14T21:49:10;9.73;;;8.88;;
37877;SDS011;23715;53.652;8.516;2022-08-14T21:54:07;11.55;;;10.50;;
37877;SDS011;23715;53.652;8.516;2022-08-14T21:59:11;12.80;;;9.30;;
37877;SDS011;23715;53.652;8.516;2022-08-14T22:04:15;11.03;;;9.93;;
37877;SDS011;23715;53.652;8.516;2022-08-14T22:09:20;11.60;;;10.25;;
37877;SDS011;23715;53.652;8.516;2022-08-14T22:14:26;11.90;;;9.90;;
37877;SDS011;23715;53.652;8.516;2022-08-14T22:19:26;11.00;;;9.93;;
37877;SDS011;23715;53.652;8.516;2022-08-14T22:24:27;16.37;;;9.60;;
37877;SDS011;23715;53.652;8.516;2022-08-14T22:29:28;11.38;;;10.30;;
37877;SDS011;23715;53.652;8.516;2022-08-14T22:34:30;10.68;;;8.63;;
37877;SDS011;23715;53.652;8.516;2022-08-14T22:39:32;9.55;;;8.63;;
37877;SDS011;23715;53.652;8.516;2022-08-14T22:44:34;12.35;;;9.45;;
37877;SDS011;23715;53.652;8.516;2022-08-14T22:49:36;10.03;;;9.03;;
37877;SDS011;23715;53.652;8.516;2022-08-14T22:54:37;13.93;;;9.58;;
37877;SDS011;23715;53.652;8.516;2022-08-14T22:59:38;14.40;;;9.43;;
37877;SDS011;23715;53.652;8.516;2022-08-14T23:04:38;12.63;;;8.38;;
37877;SDS011;23715;53.652;8.516;2022-08-14T23:09:40;11.73;;;9.05;;
37877;SDS011;23715;53.652;8.516;2022-08-14T23:14:41;10.70;;;9.65;;
37877;SDS011;23715;53.652;8.516;2022-08-14T23:19:42;11.03;;;9.83;;
37877;SDS011;23715;53.652;8.516;2022-08-14T23:24:43;11.40;;;8.70;;
37877;SDS011;23715;53.652;8.516;2022-08-14T23:29:45;13.40;;;10.25;;
37877;SDS011;23715;53.652;8.516;2022-08-14T23:34:45;11.00;;;9.18;;
37877;SDS011;23715;53.652;8.516;2022-08-14T23:39:46;13.60;;;10.35;;
37877;SDS011;23715;53.652;8.516;2022-08-14T23:44:46;11.73;;;9.65;;
37877;SDS011;23715;53.652;8.516;2022-08-14T23:54:46;11.35;;;9.98;;
37877;SDS011;23715;53.652;8.516;2022-08-14T23:59:46;11.33;;;10.23;;
